METAR Data
IDs: Format: Raw Decoded Include TAF

Data at: 1329 UTC 07 Jul 2020

METAR for:KDCA (Washington/National, VA, US)
Text:KDCA 071252Z 07006KT 10SM SCT011 BKN065 24/21 A3008 RMK AO2 SLP184 T02390211
Temperature: 23.9°C ( 75°F)
Dewpoint: 21.1°C ( 70°F) [RH = 84%]
Pressure (altimeter):30.08 inches Hg (1018.7 mb) [Sea level pressure: 1018.4 mb]
Winds:from the ENE (70 degrees) at 7 MPH (6 knots; 3.1 m/s)
Visibility:10 or more sm (16+ km)
Ceiling:6500 feet AGL
Clouds: scattered clouds at 1100 feet AGL, broken clouds at 6500 feet AGL